Time;durP1;ratioP1;P1;durP2;ratioP2;P2;SDS_P1;SDS_P2;PMS_P1;PMS_P2;Temp;Humidity;BMP_temperature;BMP_pressure;BME280_temperature;BME280_humidity;BME280_pressure;Samples;Min_cycle;Max_cycle;Signal;HPM_P1;HPM_P2
2024/02/17 00:00:22;;;;;;;26.00;11.40;;;;;;;-147.86;100.00;7937.30;104889;1269;59251;-47
2024/02/17 00:02:50;;;;;;;22.70;12.00;;;;;;;-147.86;100.00;8424.75;104862;1268;59386;-47
2024/02/17 00:05:17;;;;;;;19.50;11.40;;;;;;;-147.86;100.00;8684.36;104828;1271;71470;-47
2024/02/17 00:07:45;;;;;;;24.50;10.20;;;;;;;-147.86;100.00;8488.37;104843;1265;64062;-49
2024/02/17 00:10:13;;;;;;;16.20;8.70;;;;;;;-147.86;100.00;8227.94;104811;1267;71510;-47
2024/02/17 00:12:41;;;;;;;12.40;8.00;;;;;;;-147.86;100.00;8189.54;105101;1260;241687;-47
2024/02/17 00:15:09;;;;;;;13.80;7.40;;;;;;;-147.86;100.00;8259.76;105246;1265;59333;-47
2024/02/17 00:17:37;;;;;;;10.70;7.50;;;;;;;-147.86;100.00;8002.48;105227;1264;72202;-49
2024/02/17 00:20:07;;;;;;;11.20;7.10;;;;;;;-147.86;100.00;8299.37;105209;1258;62961;-47
2024/02/17 00:22:35;;;;;;;14.20;6.80;;;;;;;-147.86;100.00;8063.79;105249;1265;72626;-48
2024/02/17 00:25:03;;;;;;;14.70;7.70;;;;;;;-147.86;100.00;8026.14;105262;1261;59691;-48
2024/02/17 00:27:31;;;;;;;12.50;7.60;;;;;;;-147.86;100.00;7908.19;105247;1264;60156;-47
2024/02/17 00:29:59;;;;;;;11.00;6.80;;;;;;;-147.86;100.00;8082.81;105282;1260;71768;-48
2024/02/17 00:32:27;;;;;;;14.30;6.70;;;;;;;-147.86;100.00;8155.00;105256;1259;64095;-48
2024/02/17 00:34:55;;;;;;;17.80;7.20;;;;;;;-147.86;100.00;8051.00;105265;1265;71448;-47
2024/02/17 00:37:23;;;;;;;15.90;6.70;;;;;;;-147.86;100.00;8047.49;105695;1259;59842;-47
2024/02/17 00:39:51;;;;;;;11.10;6.50;;;;;;;-147.86;100.00;7958.24;105661;1254;60066;-45
2024/02/17 00:42:18;;;;;;;8.80;5.90;;;;;;;-147.86;100.00;8217.87;105610;1255;70846;-47
2024/02/17 00:44:46;;;;;;;10.00;6.10;;;;;;;-147.86;100.00;8103.76;105667;1259;64211;-46
2024/02/17 00:47:14;;;;;;;13.10;7.60;;;;;;;-147.86;100.00;8103.77;105695;1257;71400;-48
2024/02/17 00:49:42;;;;;;;17.60;8.20;;;;;;;-147.86;100.00;8260.17;105625;1257;59744;-46
2024/02/17 00:52:09;;;;;;;15.40;7.20;;;;;;;-147.86;100.00;8117.34;105624;1260;59561;-50
2024/02/17 00:54:37;;;;;;;12.90;7.30;;;;;;;-147.86;100.00;7106.92;105647;1259;71798;-46
2024/02/17 00:57:05;;;;;;;22.70;7.40;;;;;;;-147.86;100.00;6443.95;105635;1254;63966;-48
2024/02/17 00:59:33;;;;;;;10.90;6.80;;;;;;;-147.86;100.00;6687.96;105678;1259;72707;-47
2024/02/17 01:02:01;;;;;;;16.10;8.80;;;;;;;-147.86;100.00;7220.26;105651;1254;61015;-47
2024/02/17 01:04:29;;;;;;;14.60;8.10;;;;;;;-147.86;100.00;7993.96;105701;1261;59721;-48
2024/02/17 01:06:57;;;;;;;16.00;8.30;;;;;;;-147.86;100.00;8619.98;105655;1259;73080;-45
2024/02/17 01:09:25;;;;;;;22.80;9.00;;;;;;;-147.86;100.00;9458.00;105647;1260;64026;-47
2024/02/17 01:11:52;;;;;;;15.90;8.00;;;;;;;-147.86;100.00;9396.27;105636;1260;71416;-46
2024/02/17 01:14:21;;;;;;;12.60;7.60;;;;;;;-147.86;100.00;9866.44;105614;1263;59746;-47
2024/02/17 01:16:49;;;;;;;13.20;7.20;;;;;;;-147.86;100.00;10311.41;105620;1261;60396;-46
2024/02/17 01:19:16;;;;;;;15.70;8.30;;;;;;;-147.86;100.00;10789.38;105636;1260;71758;-45
2024/02/17 01:21:44;;;;;;;17.10;8.50;;;;;;;-147.86;100.00;11103.98;105616;1260;63912;-47
2024/02/17 01:24:12;;;;;;;13.80;7.50;;;;;;;-147.86;100.00;11555.28;105623;1261;72615;-46
2024/02/17 01:26:40;;;;;;;16.90;7.60;;;;;;;-147.86;100.00;11825.61;105684;1262;59744;-48
2024/02/17 01:29:08;;;;;;;19.10;7.30;;;;;;;-147.86;100.00;12062.98;105586;1261;59714;-47
2024/02/17 01:31:36;;;;;;;17.10;7.60;;;;;;;-147.86;100.00;12080.45;105604;1262;71793;-48
2024/02/17 01:34:04;;;;;;;16.10;7.70;;;;;;;-147.86;100.00;12084.34;105617;1260;64059;-46
2024/02/17 01:36:32;;;;;;;18.60;8.00;;;;;;;-147.86;100.00;12690.40;105621;1262;71360;-47
2024/02/17 01:39:00;;;;;;;17.00;7.80;;;;;;;-147.86;100.00;12951.11;105666;1258;59736;-47
2024/02/17 01:41:28;;;;;;;19.50;8.50;;;;;;;-147.86;100.00;13314.83;105656;1256;59988;-47
2024/02/17 01:43:56;;;;;;;17.70;8.30;;;;;;;-147.86;100.00;13820.81;105688;1260;71910;-48
2024/02/17 01:46:23;;;;;;;15.20;8.50;;;;;;;-147.86;100.00;14354.46;105634;1254;63999;-49
2024/02/17 01:48:51;;;;;;;17.10;8.10;;;;;;;-147.86;100.00;14866.79;105579;1257;71403;-49
2024/02/17 01:51:19;;;;;;;18.50;9.10;;;;;;;-147.86;100.00;15285.50;105743;1256;59760;-46
2024/02/17 01:54:03;;;;;;;19.60;9.60;;;;;;;-147.86;100.00;32561.44;102751;1292;600940;-49
2024/02/17 01:56:31;;;;;;;24.80;10.10;;;;;;;-147.86;100.00;16505.38;104776;1267;59356;-45
2024/02/17 01:58:59;;;;;;;21.90;9.10;;;;;;;-147.86;100.00;17029.62;104768;1270;59295;-46
2024/02/17 02:01:27;;;;;;;20.50;9.90;;;;;;;-147.86;100.00;17385.93;104824;1267;72650;-46
2024/02/17 02:03:55;;;;;;;19.80;9.20;;;;;;;-147.86;100.00;18055.89;104822;1271;65167;-48
2024/02/17 02:06:24;;;;;;;20.50;9.80;;;;;;;-147.86;100.00;18532.49;104768;1268;72713;-48
2024/02/17 02:08:52;;;;;;;17.90;8.30;;;;;;;-147.86;100.00;18850.41;104985;1264;227353;-45
2024/02/17 02:11:19;;;;;;;15.20;7.60;;;;;;;-147.86;100.00;19220.50;105148;1267;59852;-45
2024/02/17 02:13:48;;;;;;;19.20;10.10;;;;;;;-147.86;100.00;19543.16;104815;1264;72250;-46
2024/02/17 02:16:16;;;;;;;15.00;8.60;;;;;;;-147.86;100.00;19974.05;105073;1268;63960;-46
2024/02/17 02:18:44;;;;;;;18.20;9.00;;;;;;;-147.86;100.00;20458.71;105092;1268;72588;-46
2024/02/17 02:21:12;;;;;;;16.30;8.00;;;;;;;-147.86;100.00;20976.53;105145;1266;59763;-47
2024/02/17 02:23:45;;;;;;;13.70;7.60;;;;;;;-147.86;100.00;21373.68;105049;1266;59605;-47
2024/02/17 02:26:12;;;;;;;14.30;7.50;;;;;;;-147.86;100.00;21790.79;105164;1268;71788;-48
2024/02/17 02:28:40;;;;;;;21.60;8.10;;;;;;;-147.86;100.00;22505.45;105141;1265;64058;-48
2024/02/17 02:31:08;;;;;;;18.00;8.30;;;;;;;-147.86;100.00;23116.64;105102;1268;72692;-46
2024/02/17 02:33:36;;;;;;;18.50;8.80;;;;;;;-147.86;100.00;23676.88;105063;1266;59708;-45
2024/02/17 02:36:04;;;;;;;16.90;8.70;;;;;;;-147.86;100.00;24139.01;105065;1265;59685;-47
2024/02/17 02:38:33;;;;;;;18.90;10.10;;;;;;;-147.86;100.00;24570.81;105107;1264;73093;-47
2024/02/17 02:41:00;;;;;;;20.10;8.30;;;;;;;-147.86;100.00;25490.69;105107;1268;65158;-46
2024/02/17 02:43:29;;;;;;;20.10;8.50;;;;;;;-147.86;100.00;26311.31;105076;1266;71608;-45
2024/02/17 02:45:57;;;;;;;16.80;9.20;;;;;;;-147.86;100.00;35123.86;105130;1264;60855;-44
2024/02/17 02:48:25;;;;;;;27.70;9.10;;;;;;;-147.86;100.00;34401.32;105895;1256;59549;-46
2024/02/17 02:57:53;;;;;;;18.00;8.90;;;;;;;-147.86;100.00;48457.52;103274;1283;600474;-46
2024/02/17 03:00:20;;;;;;;19.70;9.10;;;;;;;-147.86;100.00;34442.09;105013;1267;59556;-46
2024/02/17 03:02:49;;;;;;;17.70;8.30;;;;;;;-147.86;100.00;34205.99;105115;1264;59352;-47
2024/02/17 03:05:16;;;;;;;20.20;7.90;;;;;;;-147.86;100.00;34079.03;105118;1264;70909;-47
2024/02/17 03:07:44;;;;;;;12.00;6.90;;;;;;;-147.86;100.00;34230.21;105100;1269;64040;-46
2024/02/17 03:10:12;;;;;;;16.00;8.10;;;;;;;-147.86;100.00;34193.09;105082;1267;71628;-45
2024/02/17 03:12:40;;;;;;;11.10;7.20;;;;;;;-147.86;100.00;34361.88;104965;1266;401418;-46
2024/02/17 03:15:09;;;;;;;13.30;6.80;;;;;;;-147.86;100.00;34687.73;105718;1260;59340;-49
2024/02/17 03:17:36;;;;;;;11.80;6.90;;;;;;;-147.86;100.00;35466.14;105662;1254;72119;-45
2024/02/17 03:20:05;;;;;;;20.10;7.60;;;;;;;-147.86;100.00;35745.19;105632;1255;62937;-48
2024/02/17 03:22:33;;;;;;;15.70;7.90;;;;;;;-147.86;100.00;36167.70;105717;1260;72528;-45
2024/02/17 03:25:01;;;;;;;16.90;7.20;;;;;;;-147.86;100.00;36413.17;105724;1254;59702;-46
2024/02/17 03:27:29;;;;;;;17.50;6.60;;;;;;;-147.86;100.00;36553.51;105686;1254;59948;-46
2024/02/17 03:29:56;;;;;;;17.30;6.40;;;;;;;-147.86;100.00;36765.39;105631;1254;71837;-45
2024/02/17 03:32:24;;;;;;;14.30;7.30;;;;;;;-147.86;100.00;37075.41;105676;1254;64720;-45
2024/02/17 03:37:47;;;;;;;16.30;8.00;;;;;;;-147.86;100.00;37487.50;103151;1289;600990;-49
2024/02/17 03:40:15;;;;;;;13.40;7.50;;;;;;;-147.86;100.00;28587.60;105013;1267;59295;-47
2024/02/17 03:42:42;;;;;;;15.40;7.30;;;;;;;-147.86;100.00;31977.87;105072;1269;59425;-47
2024/02/17 03:45:10;;;;;;;17.10;8.20;;;;;;;-147.86;100.00;33307.55;104812;1264;70969;-47
2024/02/17 03:47:38;;;;;;;14.30;8.30;;;;;;;-147.86;100.00;33974.72;104909;1266;64006;-46
2024/02/17 03:50:06;;;;;;;17.90;8.50;;;;;;;-147.86;100.00;34557.24;105019;1269;72598;-47
2024/02/17 03:52:35;;;;;;;17.70;8.40;;;;;;;-147.86;100.00;34796.36;105457;1259;246400;-46
2024/02/17 03:55:03;;;;;;;14.10;7.80;;;;;;;-147.86;100.00;35161.32;105594;1262;59299;-44
2024/02/17 03:57:31;;;;;;;13.10;7.90;;;;;;;-147.86;100.00;35541.96;105603;1257;72351;-48
2024/02/17 03:59:59;;;;;;;17.60;8.60;;;;;;;-147.86;100.00;35906.21;105586;1257;63918;-48
2024/02/17 04:02:27;;;;;;;16.20;8.10;;;;;;;-147.86;100.00;36232.19;105557;1260;71392;-45
2024/02/17 04:04:54;;;;;;;18.30;8.60;;;;;;;-147.86;100.00;36501.13;105578;1256;60377;-45
2024/02/17 04:07:22;;;;;;;17.80;8.90;;;;;;;-147.86;100.00;36771.26;105600;1261;59714;-46
2024/02/17 04:09:50;;;;;;;20.30;9.20;;;;;;;-147.86;100.00;36949.13;105602;1257;71757;-46
2024/02/17 04:12:18;;;;;;;13.50;7.50;;;;;;;-147.86;100.00;37262.69;105570;1256;63933;-47
2024/02/17 04:14:46;;;;;;;20.10;8.70;;;;;;;-147.86;100.00;37461.74;105567;1262;72758;-45
2024/02/17 04:17:14;;;;;;;14.50;8.30;;;;;;;-147.86;100.00;38115.13;105575;1261;60423;-48
2024/02/17 04:19:42;;;;;;;13.70;8.10;;;;;;;-147.86;100.00;38444.04;105479;1262;59584;-47
2024/02/17 04:22:09;;;;;;;14.90;7.80;;;;;;;-147.86;100.00;38787.83;105585;1257;73038;-46
2024/02/17 04:24:37;;;;;;;14.20;7.80;;;;;;;-147.86;100.00;39190.33;105590;1257;63950;-46
2024/02/17 04:27:07;;;;;;;17.30;8.10;;;;;;;-147.86;100.00;39510.72;105770;1253;72607;-46
2024/02/17 04:29:35;;;;;;;19.40;9.00;;;;;;;-147.86;100.00;39324.59;109553;1252;59636;-44
2024/02/17 04:32:03;;;;;;;20.80;10.00;;;;;;;-147.86;100.00;40162.52;109614;1252;59945;-44
2024/02/17 04:34:30;;;;;;;18.50;8.80;;;;;;;-147.86;100.00;40279.91;109619;1253;72944;-47
2024/02/17 04:36:58;;;;;;;17.00;9.10;;;;;;;-147.86;100.00;40888.01;109511;1252;65221;-47
2024/02/17 04:39:25;;;;;;;17.20;8.40;;;;;;;-147.86;100.00;41107.16;109575;1252;72636;-45
2024/02/17 04:41:54;;;;;;;17.00;8.90;;;;;;;-147.86;100.00;41422.24;109519;1252;59648;-46
2024/02/17 04:44:22;;;;;;;15.80;9.30;;;;;;;-147.86;100.00;41560.39;109539;1253;59009;-47
2024/02/17 04:46:50;;;;;;;24.80;10.70;;;;;;;-147.86;100.00;41837.91;109570;1253;71736;-46
2024/02/17 04:49:18;;;;;;;16.50;9.10;;;;;;;-147.86;100.00;42017.59;109646;1253;65131;-45
2024/02/17 04:51:46;;;;;;;15.80;8.30;;;;;;;-147.86;100.00;42187.10;109559;1253;72681;-46
2024/02/17 04:57:17;;;;;;;23.80;12.50;;;;;;;-147.86;100.00;55884.34;102743;1290;600152;-46
2024/02/17 04:59:45;;;;;;;28.60;12.00;;;;;;;-147.86;100.00;42796.30;105055;1267;59669;-46
2024/02/17 05:02:13;;;;;;;24.50;12.80;;;;;;;-147.86;100.00;43142.80;105077;1269;59378;-45
2024/02/17 05:04:41;;;;;;;26.30;12.00;;;;;;;-147.86;100.00;43289.25;104989;1269;72262;-47
2024/02/17 05:07:11;;;;;;;23.90;13.00;;;;;;;-147.86;100.00;43378.14;105104;1269;65396;-47
2024/02/17 05:09:39;;;;;;;24.60;12.20;;;;;;;-147.86;100.00;43504.25;105064;1269;70513;-47
2024/02/17 05:12:07;;;;;;;22.10;12.90;;;;;;;-147.86;100.00;43198.43;105029;1266;218479;-45
2024/02/17 05:14:37;;;;;;;23.20;12.80;;;;;;;-147.86;100.00;43826.96;105297;1266;59233;-45
2024/02/17 05:17:04;;;;;;;21.20;12.30;;;;;;;-147.86;100.00;44305.54;105684;1260;70989;-45
2024/02/17 05:19:33;;;;;;;21.00;10.90;;;;;;;-147.86;100.00;44374.09;105654;1255;64005;-45
2024/02/17 05:22:01;;;;;;;26.00;11.60;;;;;;;-147.86;100.00;44428.93;105682;1260;72723;-48
2024/02/17 05:24:30;;;;;;;17.50;11.10;;;;;;;-147.86;100.00;44610.68;105628;1258;59766;-47
2024/02/17 05:26:57;;;;;;;21.20;11.00;;;;;;;-147.86;100.00;44810.46;105614;1260;59669;-47
2024/02/17 05:29:25;;;;;;;22.60;10.90;;;;;;;-147.86;100.00;45042.37;105511;1260;72990;-48
2024/02/17 05:31:53;;;;;;;18.00;10.30;;;;;;;-147.86;100.00;45307.60;105566;1260;63999;-45
2024/02/17 05:34:22;;;;;;;24.10;10.30;;;;;;;-147.86;100.00;44997.88;105654;1260;70808;-46
2024/02/17 05:36:50;;;;;;;24.00;10.70;;;;;;;-147.86;100.00;45826.37;105654;1260;59970;-45
2024/02/17 05:39:18;;;;;;;22.10;11.30;;;;;;;-147.86;100.00;46102.61;105660;1259;59755;-44
2024/02/17 05:41:48;;;;;;;22.00;11.70;;;;;;;-147.86;100.00;46259.37;105661;1260;71849;-46
2024/02/17 05:44:16;;;;;;;27.10;12.50;;;;;;;-147.86;100.00;46544.27;105663;1255;64362;-47
2024/02/17 05:46:44;;;;;;;23.90;12.20;;;;;;;-147.86;100.00;46894.26;105615;1260;71397;-45
2024/02/17 05:49:11;;;;;;;27.50;12.30;;;;;;;-147.86;100.00;47222.72;105599;1260;59714;-46
2024/02/17 05:51:39;;;;;;;24.80;11.40;;;;;;;-147.86;100.00;47520.63;105656;1260;59541;-46
2024/02/17 05:54:08;;;;;;;32.80;10.90;;;;;;;-147.86;100.00;47778.97;105646;1255;71778;-46
2024/02/17 05:56:36;;;;;;;20.60;11.40;;;;;;;-147.86;100.00;47354.16;105617;1260;63915;-45
2024/02/17 05:59:03;;;;;;;23.00;11.50;;;;;;;-147.86;100.00;48337.25;105602;1257;71441;-48
2024/02/17 06:01:31;;;;;;;24.40;13.70;;;;;;;-147.86;100.00;48451.75;105614;1259;60298;-47
2024/02/17 06:03:59;;;;;;;35.40;15.20;;;;;;;-147.86;100.00;48746.23;105651;1269;59727;-47
2024/02/17 06:06:27;;;;;;;50.20;29.50;;;;;;;-147.86;100.00;48620.01;109298;1254;71589;-45
2024/02/17 06:08:56;;;;;;;31.80;18.90;;;;;;;-147.86;100.00;49385.83;109323;1254;63923;-46
2024/02/17 06:11:23;;;;;;;20.80;11.40;;;;;;;-147.86;100.00;49241.12;109287;1255;71788;-48
2024/02/17 06:13:51;;;;;;;18.80;10.00;;;;;;;-147.86;100.00;49618.80;109290;1254;59339;-46
2024/02/17 06:16:21;;;;;;;18.10;9.30;;;;;;;-147.86;100.00;49710.98;109415;1254;58714;-46
2024/02/17 06:21:35;;;;;;;17.30;9.80;;;;;;;-147.86;100.00;48970.20;109254;1255;64420;-48
2024/02/17 06:24:04;;;;;;;18.10;8.50;;;;;;;-147.86;100.00;49457.42;109239;1257;72651;-48
2024/02/17 06:26:33;;;;;;;22.70;10.20;;;;;;;-147.86;100.00;49155.59;109290;1258;60932;-47
2024/02/17 06:29:03;;;;;;;18.60;8.80;;;;;;;-147.86;100.00;49805.10;109307;1260;59994;-46
2024/02/17 06:31:30;;;;;;;16.70;9.50;;;;;;;-147.86;100.00;49753.72;109283;1255;71706;-47
2024/02/17 06:34:03;;;;;;;14.70;8.10;;;;;;;-147.86;100.00;49605.86;109266;1254;65176;-47
2024/02/17 06:36:32;;;;;;;16.30;7.90;;;;;;;-147.86;100.00;48667.50;109295;1256;71494;-45
2024/02/17 06:39:00;;;;;;;14.30;8.10;;;;;;;-147.86;100.00;49959.25;109253;1256;59267;-45
2024/02/17 06:41:27;;;;;;;12.20;7.30;;;;;;;-147.86;100.00;49513.29;109277;1254;58950;-44
2024/02/17 06:43:55;;;;;;;15.70;6.20;;;;;;;-147.86;100.00;49243.07;109255;1254;73026;-45
2024/02/17 06:46:23;;;;;;;17.70;7.30;;;;;;;-147.86;100.00;48993.26;109297;1255;63924;-47
2024/02/17 06:48:52;;;;;;;18.30;7.50;;;;;;;-147.86;100.00;48697.20;109270;1254;72612;-46
2024/02/17 06:51:20;;;;;;;14.40;7.00;;;;;;;-147.86;100.00;48365.09;109271;1254;58102;-46
2024/02/17 06:56:58;;;;;;;;;;;;;;;-147.86;100.00;59355.82;102747;1290;600823;-46
2024/02/17 06:59:26;;;;;;;12.50;7.30;;;;;;;-147.86;100.00;46530.98;105155;1263;59762;-46
2024/02/17 07:01:54;;;;;;;11.40;7.20;;;;;;;-147.86;100.00;46201.56;105050;1269;59547;-44
2024/02/17 07:04:22;;;;;;;14.20;7.70;;;;;;;-147.86;100.00;44493.77;105134;1264;70664;-49
2024/02/17 07:06:49;;;;;;;12.10;7.00;;;;;;;-147.86;100.00;44234.57;105144;1269;63993;-45
2024/02/17 07:09:20;;;;;;;16.90;6.60;;;;;;;-147.86;100.00;45368.70;105057;1268;73935;-47
2024/02/17 07:11:48;;;;;;;14.00;7.30;;;;;;;-147.86;100.00;42120.36;104971;1263;365668;-46
2024/02/17 07:14:16;;;;;;;14.30;7.50;;;;;;;-147.86;100.00;43388.01;105187;1269;59327;-48
2024/02/17 07:16:43;;;;;;;12.30;7.10;;;;;;;-147.86;100.00;42983.41;105201;1263;70967;-47
2024/02/17 07:19:11;;;;;;;14.00;7.40;;;;;;;-147.86;100.00;40134.58;105209;1264;64231;-45
2024/02/17 07:21:39;;;;;;;13.10;7.80;;;;;;;-147.86;100.00;37687.69;105215;1263;71640;-47
2024/02/17 07:24:07;;;;;;;15.50;8.30;;;;;;;-147.86;100.00;38716.52;105241;1266;59669;-49
2024/02/17 07:26:40;;;;;;;10.90;6.80;;;;;;;-147.86;100.00;40339.36;105173;1276;59656;-44
2024/02/17 07:29:08;;;;;;;14.10;7.80;;;;;;;-147.86;100.00;39038.14;105358;1263;72130;-48
2024/02/17 07:31:40;;;;;;;12.90;7.50;;;;;;;-147.86;100.00;35742.70;105342;1259;63592;-46
2024/02/17 07:34:11;;;;;;;14.60;8.00;;;;;;;-147.86;100.00;36855.67;105364;1264;72687;-48
2024/02/17 07:36:38;;;;;;;14.20;7.20;;;;;;;-147.86;100.00;34826.80;105376;1262;59734;-47
2024/02/17 07:39:07;;;;;;;19.80;7.20;;;;;;;-147.86;100.00;32821.63;105340;1265;60130;-46
2024/02/17 07:41:36;;;;;;;12.20;6.80;;;;;;;-147.86;100.00;27231.54;105379;1263;71775;-50
2024/02/17 07:44:08;;;;;;;11.70;6.70;;;;;;;-147.86;100.00;27109.22;105333;1262;65177;-48
2024/02/17 07:46:36;;;;;;;18.10;7.70;;;;;;;-147.86;100.00;24845.07;105401;1263;71728;-46
2024/02/17 07:49:04;;;;;;;13.40;7.40;;;;;;;-147.86;100.00;19984.72;105310;1264;59733;-46
2024/02/17 07:51:34;;;;;;;17.90;6.90;;;;;;;-147.86;100.00;17257.33;105380;1263;59708;-46
2024/02/17 07:54:02;;;;;;;12.50;7.20;;;;;;;-147.86;100.00;16712.19;105310;1261;73541;-46
2024/02/17 07:56:30;;;;;;;10.30;7.20;;;;;;;-147.86;100.00;15445.64;105206;1261;63944;-45
2024/02/17 07:58:58;;;;;;;14.90;7.50;;;;;;;-147.86;100.00;12954.58;105551;1261;73909;-47
2024/02/17 08:01:26;;;;;;;21.30;7.50;;;;;;;-147.86;100.00;11197.14;105586;1258;59691;-49
2024/02/17 08:03:55;;;;;;;13.70;7.80;;;;;;;-147.86;100.00;9089.96;105605;1262;59959;-47
2024/02/17 08:06:23;;;;;;;12.10;7.10;;;;;;;-147.86;100.00;5828.19;105633;1269;73194;-48
2024/02/17 08:08:51;;;;;;;16.00;7.70;;;;;;;-147.86;100.00;6379.38;105510;1266;64394;-49
2024/02/17 08:11:19;;;;;;;12.00;7.50;;;;;;;-147.86;100.00;8073.92;105618;1261;71453;-49
2024/02/17 08:13:46;;;;;;;15.60;8.20;;;;;;;-147.86;100.00;9181.19;105530;1267;59743;-48
2024/02/17 08:16:14;;;;;;;19.30;7.90;;;;;;;-147.86;100.00;9493.23;105842;1257;59637;-48
2024/02/17 08:18:43;;;;;;;23.30;7.80;;;;;;;-147.86;100.00;10352.55;105833;1251;71823;-48
2024/02/17 08:21:11;;;;;;;18.20;8.20;;;;;;;-147.86;100.00;8690.96;105892;1251;65134;-51
2024/02/17 08:23:41;;;;;;;18.90;8.30;;;;;;;-147.86;100.00;6565.77;105817;1257;72547;-50
2024/02/17 08:26:11;;;;;;;20.90;9.00;;;;;;;-147.86;100.00;-1465.86;105878;1254;60897;-50
2024/02/17 08:28:39;;;;;;;13.40;7.10;;;;;;;-147.86;100.00;-3771.47;105872;1256;60018;-51
2024/02/17 08:31:07;;;;;;;13.20;7.70;;;;;;;-147.86;100.00;-5014.65;105844;1256;71347;-48
2024/02/17 08:33:36;;;;;;;16.60;7.50;;;;;;;-147.86;100.00;-6638.87;105871;1263;64027;-47
2024/02/17 08:36:05;;;;;;;13.90;6.70;;;;;;;-147.86;100.00;-9750.33;105939;1258;72703;-49
2024/02/17 08:38:33;;;;;;;15.90;8.30;;;;;;;-147.86;100.00;-11964.87;105919;1253;60307;-49
2024/02/17 08:41:04;;;;;;;21.70;7.30;;;;;;;-147.86;100.00;-12484.31;105825;1254;59980;-48
2024/02/17 08:43:32;;;;;;;19.40;7.70;;;;;;;-147.86;100.00;-15314.91;105923;1252;71793;-53
2024/02/17 08:45:59;;;;;;;16.40;8.10;;;;;;;-147.86;100.00;-16594.13;105836;1260;63132;-47
2024/02/17 08:48:27;;;;;;;13.30;7.40;;;;;;;-147.86;100.00;-16904.90;105841;1254;71361;-51
2024/02/17 08:50:56;;;;;;;18.70;8.10;;;;;;;-147.86;100.00;-17455.74;105853;1256;59726;-52
2024/02/17 08:53:25;;;;;;;13.90;8.50;;;;;;;-147.86;100.00;-17309.63;105892;1256;60054;-53
2024/02/17 08:55:53;;;;;;;17.30;8.00;;;;;;;-147.86;100.00;-17516.07;105930;1256;72466;-52
2024/02/17 08:58:21;;;;;;;14.30;8.10;;;;;;;-147.86;100.00;-17609.17;105902;1254;64556;-49
2024/02/17 09:00:49;;;;;;;20.00;8.90;;;;;;;-147.86;100.00;-17609.17;105868;1257;71685;-48
2024/02/17 09:03:18;;;;;;;11.90;7.20;;;;;;;-147.86;100.00;-17609.17;105887;1256;59762;-51
2024/02/17 09:05:46;;;;;;;15.00;7.30;;;;;;;-147.86;100.00;-17609.17;105863;1267;60462;-47
2024/02/17 09:08:14;;;;;;;13.90;8.30;;;;;;;-147.86;100.00;-17609.17;105899;1257;71873;-51
2024/02/17 09:10:42;;;;;;;13.80;7.90;;;;;;;-147.86;100.00;-17609.17;105882;1255;63193;-52
2024/02/17 09:13:10;;;;;;;13.10;7.90;;;;;;;-147.86;100.00;-17609.17;105839;1255;71437;-50
2024/02/17 09:15:37;;;;;;;13.30;8.10;;;;;;;-147.86;100.00;-17609.17;105871;1253;59695;-49
2024/02/17 09:18:05;;;;;;;14.70;7.20;;;;;;;-147.86;100.00;-17609.17;105840;1256;59552;-53
2024/02/17 09:20:33;;;;;;;22.30;8.90;;;;;;;-147.86;100.00;-17609.17;105938;1254;73125;-51
2024/02/17 09:23:02;;;;;;;17.50;8.00;;;;;;;-147.86;100.00;-17609.17;105843;1257;63175;-53
2024/02/17 09:25:30;;;;;;;16.30;8.10;;;;;;;-147.86;100.00;-17609.17;105967;1255;71089;-55
2024/02/17 09:58:12;;;;;;;18.80;8.10;;;;;;;-147.86;100.00;-17609.17;102604;1292;601062;-55
2024/02/17 10:00:41;;;;;;;14.90;8.10;;;;;;;-147.86;100.00;-17609.17;104817;1271;59268;-57
2024/02/17 10:03:09;;;;;;;13.60;6.90;;;;;;;-147.86;100.00;-17609.17;104731;1266;60142;-55
2024/02/17 10:05:37;;;;;;;19.60;7.70;;;;;;;-147.86;100.00;-17609.17;104829;1266;74519;-56
2024/02/17 10:08:06;;;;;;;23.00;10.40;;;;;;;-147.86;100.00;-17609.17;104831;1270;66553;-56
2024/02/17 10:10:35;;;;;;;16.30;8.90;;;;;;;-147.86;100.00;-17609.17;104868;1270;70499;-57
2024/02/17 10:13:03;;;;;;;18.00;9.20;;;;;;;-147.86;100.00;-17609.17;104694;1264;250733;-52
2024/02/17 10:15:32;;;;;;;27.50;10.60;;;;;;;-147.86;100.00;-17609.17;105852;1253;60325;-57
2024/02/17 10:18:00;;;;;;;23.30;10.60;;;;;;;-147.86;100.00;-17609.17;105834;1256;73858;-53
2024/02/17 10:20:28;;;;;;;16.80;8.70;;;;;;;-147.86;100.00;-17609.17;105882;1257;66647;-54
2024/02/17 10:22:56;;;;;;;18.40;9.70;;;;;;;-147.86;100.00;-17312.21;105838;1257;73841;-55
2024/02/17 10:25:24;;;;;;;15.40;6.90;;;;;;;-147.86;100.00;-13410.98;105732;1258;60028;-51
2024/02/17 10:27:52;;;;;;;16.10;6.70;;;;;;;-147.86;100.00;-7132.54;105855;1252;59554;-55
2024/02/17 10:30:20;;;;;;;16.20;6.60;;;;;;;-147.86;100.00;-2825.91;105833;1253;72605;-57
2024/02/17 10:32:48;;;;;;;13.80;6.70;;;;;;;-147.86;99.89;-100.19;105730;1257;63145;-56
2024/02/17 10:35:16;;;;;;;17.50;8.30;;;;;;;-147.86;99.63;8434.47;105763;1257;71374;-56
2024/02/17 10:37:46;;;;;;;9.90;6.30;;;;;;;-147.86;99.04;12311.46;105782;1257;59753;-55
2024/02/17 10:40:14;;;;;;;14.60;6.40;;;;;;;-147.86;98.81;16838.98;105887;1253;59809;-56
2024/02/17 10:42:44;;;;;;;16.80;7.10;;;;;;;-147.86;98.26;21223.21;105848;1254;71769;-55
2024/02/17 10:45:12;;;;;;;15.90;6.90;;;;;;;-147.86;97.89;27890.54;105697;1253;64315;-55
2024/02/17 10:47:40;;;;;;;15.00;7.30;;;;;;;-147.86;97.34;33922.29;105627;1255;71420;-55
2024/02/17 10:50:19;;;;;;;13.90;6.80;;;;;;;-147.86;96.64;39350.93;105696;1258;61481;-59
2024/02/17 10:53:29;;;;;;;14.70;6.20;;;;;;;-147.86;95.66;43650.32;105853;1252;59733;-58
2024/02/17 10:55:59;;;;;;;17.00;6.40;;;;;;;-147.86;94.22;45768.36;105656;1254;72083;-55
2024/02/17 10:58:27;;;;;;;14.80;7.50;;;;;;;-147.86;93.76;46321.65;105712;1258;63180;-58
2024/02/17 11:00:55;;;;;;;15.00;7.40;;;;;;;-147.86;91.83;46601.07;105735;1254;72784;-58
2024/02/17 11:03:28;;;;;;;14.60;6.70;;;;;;;-147.86;92.30;46731.20;105750;1259;60060;-53
2024/02/17 11:05:58;;;;;;;9.60;5.60;;;;;;;-147.86;93.12;46800.17;105727;1254;59975;-53
2024/02/17 11:08:26;;;;;;;13.20;6.20;;;;;;;-147.86;92.51;46776.26;105743;1258;73589;-52
2024/02/17 11:10:54;;;;;;;12.40;6.40;;;;;;;-147.86;92.19;46853.86;105698;1259;63131;-56
2024/02/17 11:13:28;;;;;;;16.30;6.90;;;;;;;-147.86;92.23;46931.47;105719;1254;74752;-56
2024/02/17 11:16:07;;;;;;;11.70;6.50;;;;;;;-147.86;92.03;46936.56;105736;1258;59753;-54
2024/02/17 11:18:36;;;;;;;13.80;6.70;;;;;;;-147.86;91.63;46991.05;105720;1258;59641;-53
2024/02/17 11:21:04;;;;;;;13.90;6.40;;;;;;;-147.86;90.74;47044.74;105719;1253;73000;-58
2024/02/17 11:23:40;;;;;;;13.20;6.50;;;;;;;-147.86;90.26;47045.53;105658;1254;63791;-55
2024/02/17 11:26:15;;;;;;;15.10;7.70;;;;;;;-147.86;87.94;47085.90;105719;1259;74645;-52
2024/02/17 11:29:04;;;;;;;16.10;6.90;;;;;;;-147.86;87.12;47159.98;105701;1254;59849;-58
2024/02/17 11:31:32;;;;;;;13.10;6.90;;;;;;;-147.86;87.57;47167.43;105738;1254;59991;-52
2024/02/17 11:34:02;;;;;;;15.80;6.50;;;;;;;-147.86;86.76;47197.22;105694;1258;75529;-57
2024/02/17 11:36:31;;;;;;;11.10;6.70;;;;;;;-147.86;88.14;47239.16;105686;1254;63217;-51
2024/02/17 11:39:00;;;;;;;10.90;6.30;;;;;;;-147.86;87.59;47243.08;105731;1259;72608;-57
2024/02/17 11:41:28;;;;;;;12.20;7.00;;;;;;;-147.86;87.48;47263.07;105725;1254;60038;-53
2024/02/17 11:43:57;;;;;;;16.60;7.40;;;;;;;-147.86;88.45;47261.11;105745;1254;59741;-56
2024/02/17 11:46:24;;;;;;;12.00;7.30;;;;;;;-147.86;86.67;47254.84;105744;1257;71882;-52
2024/02/17 11:48:52;;;;;;;15.30;7.50;;;;;;;-147.86;85.01;47272.48;105665;1254;63272;-55